Time;durP1;ratioP1;P1;durP2;ratioP2;P2;SDS_P1;SDS_P2;PMS_P1;PMS_P2;Temp;Humidity;BMP_temperature;BMP_pressure;BME280_temperature;BME280_humidity;BME280_pressure;Samples;Min_cycle;Max_cycle;Signal;HPM_P1;HPM_P2
2023/06/11 00:01:59;;;;;;;;;;;;;;;23.96;52.84;96590.31;4201249;28;5697;-75
2023/06/11 00:04:02;;;;;;;;;;;;;;;23.96;52.91;96589.50;4201212;28;5690;-74
2023/06/11 00:06:05;;;;;;;;;;;;;;;23.96;53.05;96594.91;4201126;28;5697;-74
2023/06/11 00:08:09;;;;;;;;;;;;;;;23.95;52.75;96593.28;4192341;28;5899;-74
2023/06/11 00:10:14;;;;;;;;;;;;;;;23.94;52.96;96586.28;4185537;28;5714;-74
2023/06/11 00:12:16;;;;;;;;;;;;;;;23.94;52.99;96589.78;4199687;28;5698;-74
2023/06/11 00:14:21;;;;;;;;;;;;;;;23.93;53.01;96584.66;4198704;28;5834;-74
2023/06/11 00:16:24;;;;;;;;;;;;;;;23.93;52.82;96576.56;4194515;28;5705;-74
2023/06/11 00:18:27;;;;;;;;;;;;;;;23.94;52.77;96583.56;4196830;28;5720;-75
2023/06/11 00:20:32;;;;;;;;;;;;;;;23.93;52.74;96582.78;4193554;28;5967;-74
2023/06/11 00:22:35;;;;;;;;;;;;;;;23.94;52.58;96581.69;4184588;28;5714;-75
2023/06/11 00:24:38;;;;;;;;;;;;;;;23.94;53.16;96587.09;4193174;28;5853;-75
2023/06/11 00:26:43;;;;;;;;;;;;;;;23.94;52.80;96586.28;4200877;28;5788;-75
2023/06/11 00:28:45;;;;;;;;;;;;;;;23.93;52.51;96584.66;4196280;28;5725;-73
2023/06/11 00:30:48;;;;;;;;;;;;;;;23.93;52.66;96579.28;4200509;28;5699;-74
2023/06/11 00:32:51;;;;;;;;;;;;;;;23.92;52.61;96580.38;4199836;28;5677;-75
2023/06/11 00:34:54;;;;;;;;;;;;;;;23.91;52.64;96579.56;4203137;28;5842;-74
2023/06/11 00:36:57;;;;;;;;;;;;;;;23.89;53.09;96586.31;4189488;28;5726;-74
2023/06/11 00:39:00;;;;;;;;;;;;;;;23.88;52.69;96588.19;4193339;28;5701;-74
2023/06/11 00:41:03;;;;;;;;;;;;;;;23.88;53.17;96595.50;4196228;28;6818;-75
2023/06/11 00:43:08;;;;;;;;;;;;;;;23.87;52.75;96596.59;4193457;28;5690;-74
2023/06/11 00:45:12;;;;;;;;;;;;;;;23.86;53.20;96606.56;4191863;28;6033;-75
2023/06/11 00:47:16;;;;;;;;;;;;;;;23.86;52.84;96594.97;4195713;28;5737;-74
2023/06/11 00:49:19;;;;;;;;;;;;;;;23.85;53.18;96598.75;4196375;28;5698;-75
2023/06/11 00:51:23;;;;;;;;;;;;;;;23.85;52.96;96601.47;4202718;28;5812;-74
2023/06/11 00:53:26;;;;;;;;;;;;;;;23.84;53.20;96594.47;4192719;28;6391;-74
2023/06/11 00:55:30;;;;;;;;;;;;;;;23.84;53.31;96591.75;4188134;28;5702;-74
2023/06/11 00:57:35;;;;;;;;;;;;;;;23.84;52.99;96602.56;4201826;28;6389;-74
2023/06/11 00:59:41;;;;;;;;;;;;;;;23.82;52.95;96592.03;4203551;28;5760;-74
2023/06/11 01:01:52;;;;;;;;;;;;;;;23.81;52.97;96604.75;4203934;28;5681;-75
2023/06/11 01:03:56;;;;;;;;;;;;;;;23.80;53.42;96603.13;4203777;28;5856;-74
2023/06/11 01:06:04;;;;;;;;;;;;;;;23.78;53.14;96608.00;4201290;28;6835;-75
2023/06/11 01:08:07;;;;;;;;;;;;;;;23.77;53.46;96609.06;4191503;28;5714;-74
2023/06/11 01:10:11;;;;;;;;;;;;;;;23.75;53.26;96608.53;4194931;28;5699;-75
2023/06/11 01:12:14;;;;;;;;;;;;;;;23.73;53.49;96608.03;4198081;28;5714;-75
2023/06/11 01:14:19;;;;;;;;;;;;;;;23.74;53.32;96623.13;4189544;28;5803;-74
2023/06/11 01:16:34;;;;;;;;;;;;;;;23.74;53.32;96611.53;4194613;28;6501;-74
2023/06/11 01:18:47;;;;;;;;;;;;;;;23.73;53.57;96616.13;4201128;28;5673;-75
2023/06/11 01:20:56;;;;;;;;;;;;;;;23.73;53.15;96615.31;4196825;28;5685;-74
2023/06/11 01:23:17;;;;;;;;;;;;;;;23.70;53.44;96619.41;4202102;28;5780;-75
2023/06/11 01:25:32;;;;;;;;;;;;;;;23.70;53.58;96614.00;4203478;28;5753;-74
2023/06/11 01:27:46;;;;;;;;;;;;;;;23.68;53.52;96618.88;4196938;28;5705;-75
2023/06/11 01:29:50;;;;;;;;;;;;;;;23.68;53.79;96605.38;4203560;28;5678;-74
2023/06/11 01:31:54;;;;;;;;;;;;;;;23.68;53.81;96613.47;4203769;28;5681;-74
2023/06/11 01:33:58;;;;;;;;;;;;;;;23.68;53.53;96612.69;4203282;28;5707;-74
2023/06/11 01:36:01;;;;;;;;;;;;;;;23.68;53.59;96618.06;4202431;28;5705;-74
2023/06/11 01:38:05;;;;;;;;;;;;;;;23.65;53.82;96616.72;4203154;28;6869;-75
2023/06/11 01:40:10;;;;;;;;;;;;;;;23.66;53.99;96617.53;4203019;28;5651;-74
2023/06/11 01:42:13;;;;;;;;;;;;;;;23.64;53.67;96620.50;4202623;28;5772;-75
2023/06/11 01:44:19;;;;;;;;;;;;;;;23.66;53.99;96615.63;4202630;28;5811;-75
2023/06/11 01:46:23;;;;;;;;;;;;;;;23.65;53.48;96611.31;4186814;28;5729;-75
2023/06/11 01:48:25;;;;;;;;;;;;;;;23.65;54.03;96616.72;4203222;28;5705;-75
2023/06/11 01:50:28;;;;;;;;;;;;;;;23.62;53.83;96609.19;4202857;28;5784;-74
2023/06/11 01:52:31;;;;;;;;;;;;;;;23.63;53.88;96616.19;4202028;28;5804;-74
2023/06/11 01:54:35;;;;;;;;;;;;;;;23.61;54.18;96604.88;4202427;28;5705;-74
2023/06/11 01:56:37;;;;;;;;;;;;;;;23.59;54.05;96606.25;4196368;28;5697;-75
2023/06/11 01:58:40;;;;;;;;;;;;;;;23.58;53.93;96600.06;4187912;28;5515;-74
2023/06/11 02:00:47;;;;;;;;;;;;;;;23.58;54.11;96604.63;4193506;28;5767;-74
2023/06/11 02:02:50;;;;;;;;;;;;;;;23.58;53.98;96610.84;4198275;28;5718;-74
2023/06/11 02:04:53;;;;;;;;;;;;;;;23.57;54.15;96605.69;4203021;28;5697;-75
2023/06/11 02:06:57;;;;;;;;;;;;;;;23.57;53.90;96595.72;4192881;28;5767;-75
2023/06/11 02:09:00;;;;;;;;;;;;;;;23.56;53.92;96602.19;4200284;28;5125;-75
2023/06/11 02:11:04;;;;;;;;;;;;;;;23.56;54.01;96595.97;4190280;28;5774;-75
2023/06/11 02:13:07;;;;;;;;;;;;;;;23.55;53.78;96600.56;4197361;28;5803;-74
2023/06/11 02:15:10;;;;;;;;;;;;;;;23.53;53.66;96598.16;4194078;28;5853;-74
2023/06/11 02:17:15;;;;;;;;;;;;;;;23.53;54.07;96594.66;4195087;28;5714;-75
2023/06/11 02:19:18;;;;;;;;;;;;;;;23.53;53.69;96595.44;4193105;28;5700;-74
2023/06/11 02:21:21;;;;;;;;;;;;;;;23.52;53.74;96593.84;4189268;28;5789;-74
2023/06/11 02:23:23;;;;;;;;;;;;;;;23.52;53.64;96595.72;4188158;28;5709;-74
2023/06/11 02:25:26;;;;;;;;;;;;;;;23.51;53.98;96599.53;4202558;28;6712;-74
2023/06/11 02:27:30;;;;;;;;;;;;;;;23.50;53.63;96587.13;4196781;28;5696;-74
2023/06/11 02:29:34;;;;;;;;;;;;;;;23.51;53.57;96591.44;4200697;28;5823;-74
2023/06/11 02:31:37;;;;;;;;;;;;;;;23.49;53.91;96585.50;4193805;28;5701;-74
2023/06/11 02:33:41;;;;;;;;;;;;;;;23.49;53.72;96597.09;4196088;28;5792;-74
2023/06/11 02:35:44;;;;;;;;;;;;;;;23.48;53.88;96590.09;4202149;28;5681;-74
2023/06/11 02:37:47;;;;;;;;;;;;;;;23.48;53.93;96590.09;4201196;28;5689;-74
2023/06/11 02:39:50;;;;;;;;;;;;;;;23.50;54.10;96592.50;4198968;28;6339;-74
2023/06/11 02:41:52;;;;;;;;;;;;;;;23.49;53.61;96596.31;4200595;28;6435;-75
2023/06/11 02:43:55;;;;;;;;;;;;;;;23.48;54.07;96594.69;4185648;28;5698;-74
2023/06/11 02:45:58;;;;;;;;;;;;;;;23.47;53.89;96593.09;4197688;28;5916;-74
2023/06/11 02:48:01;;;;;;;;;;;;;;;23.48;53.70;96602.78;4185482;28;5698;-74
2023/06/11 02:50:06;;;;;;;;;;;;;;;23.46;54.08;96607.66;4197589;28;5685;-75
2023/06/11 02:52:09;;;;;;;;;;;;;;;23.46;53.71;96600.38;4200571;28;5761;-75
2023/06/11 02:54:12;;;;;;;;;;;;;;;23.46;54.03;96610.34;4200197;28;6561;-74
2023/06/11 02:56:15;;;;;;;;;;;;;;;23.45;54.01;96604.16;4200475;28;5750;-74
2023/06/11 02:58:18;;;;;;;;;;;;;;;23.46;53.88;96613.06;4185274;28;6427;-74
2023/06/11 03:00:21;;;;;;;;;;;;;;;23.43;53.72;96603.59;4192726;28;5746;-74
2023/06/11 03:02:24;;;;;;;;;;;;;;;23.41;53.96;96602.28;4185406;28;5800;-74
2023/06/11 03:04:28;;;;;;;;;;;;;;;23.39;53.74;96604.47;4199989;28;5776;-74
2023/06/11 03:06:32;;;;;;;;;;;;;;;23.38;54.04;96605.53;4196238;28;5927;-74
2023/06/11 03:08:36;;;;;;;;;;;;;;;23.38;54.19;96610.94;4193540;28;5706;-74
2023/06/11 03:10:39;;;;;;;;;;;;;;;23.39;54.05;96609.84;4198827;28;5072;-74
2023/06/11 03:12:42;;;;;;;;;;;;;;;23.40;53.72;96603.38;4198303;28;5682;-74
2023/06/11 03:14:45;;;;;;;;;;;;;;;23.40;54.22;96606.06;4198670;28;5694;-74
2023/06/11 03:16:48;;;;;;;;;;;;;;;23.40;53.75;96601.47;4199590;28;6391;-74
2023/06/11 03:18:51;;;;;;;;;;;;;;;23.41;54.24;96599.59;4200960;28;5776;-74
2023/06/11 03:20:54;;;;;;;;;;;;;;;23.39;53.81;96599.06;4201626;28;5819;-75
2023/06/11 03:22:58;;;;;;;;;;;;;;;23.40;53.94;96597.97;4199191;28;5883;-74
2023/06/11 03:25:01;;;;;;;;;;;;;;;23.41;53.86;96597.69;4198979;28;5784;-75
2023/06/11 03:27:05;;;;;;;;;;;;;;;23.42;53.75;96595.81;4186144;28;5718;-75
2023/06/11 03:29:09;;;;;;;;;;;;;;;23.39;54.05;96599.88;4197132;28;5735;-75
2023/06/11 03:31:12;;;;;;;;;;;;;;;23.39;53.87;96596.38;4200229;28;5752;-73
2023/06/11 03:33:16;;;;;;;;;;;;;;;23.38;54.09;96600.16;4201146;28;5726;-73
2023/06/11 03:35:18;;;;;;;;;;;;;;;23.37;54.19;96596.66;4200788;28;5859;-74
2023/06/11 03:37:21;;;;;;;;;;;;;;;23.37;54.02;96596.66;4192637;28;5678;-73
2023/06/11 03:39:26;;;;;;;;;;;;;;;23.36;54.09;96600.44;4194736;28;5701;-75
2023/06/11 03:41:29;;;;;;;;;;;;;;;23.35;53.96;96601.53;4192494;28;5867;-74
2023/06/11 03:43:32;;;;;;;;;;;;;;;23.35;54.19;96603.41;4193340;28;5844;-74
2023/06/11 03:45:35;;;;;;;;;;;;;;;23.35;53.93;96606.13;4200080;28;5775;-74
2023/06/11 03:47:37;;;;;;;;;;;;;;;23.34;53.88;96607.19;4200879;28;5677;-74
2023/06/11 03:49:40;;;;;;;;;;;;;;;;;;4201188;28;5718;-75
2023/06/11 03:51:44;;;;;;;;;;;;;;;23.30;54.17;96603.44;4201002;28;5682;-74
2023/06/11 03:53:47;;;;;;;;;;;;;;;23.30;53.88;96603.44;4201386;28;5792;-74
2023/06/11 03:55:51;;;;;;;;;;;;;;;23.28;54.37;96609.09;4201129;28;5707;-74
2023/06/11 03:57:55;;;;;;;;;;;;;;;23.29;54.23;96618.00;4200808;28;5685;-74
2023/06/11 03:59:58;;;;;;;;;;;;;;;23.27;53.89;96610.19;4201338;28;5704;-75
2023/06/11 04:02:01;;;;;;;;;;;;;;;23.24;54.09;96614.25;4201017;28;5705;-74
2023/06/11 04:04:04;;;;;;;;;;;;;;;23.25;53.93;96606.97;4201061;28;5775;-74
2023/06/11 04:06:07;;;;;;;;;;;;;;;23.24;54.10;96611.56;4204271;28;5709;-74
2023/06/11 04:08:10;;;;;;;;;;;;;;;23.25;54.14;96609.66;4204793;28;5681;-73
2023/06/11 04:10:14;;;;;;;;;;;;;;;23.24;53.76;96611.56;4204533;28;6403;-73
2023/06/11 04:12:18;;;;;;;;;;;;;;;23.24;53.75;96614.25;4204486;28;5852;-74
2023/06/11 04:14:21;;;;;;;;;;;;;;;23.26;53.76;96607.78;4204366;28;6391;-74
2023/06/11 04:16:24;;;;;;;;;;;;;;;23.26;53.92;96607.78;4192338;28;5704;-74
2023/06/11 04:18:28;;;;;;;;;;;;;;;23.26;53.77;96615.88;4203246;28;5685;-74
2023/06/11 04:20:31;;;;;;;;;;;;;;;23.24;53.75;96616.97;4202971;28;5668;-74
2023/06/11 04:22:34;;;;;;;;;;;;;;;23.23;54.13;96612.66;4203431;28;5704;-74
2023/06/11 04:24:37;;;;;;;;;;;;;;;23.24;54.22;96614.25;4199277;28;5825;-73
2023/06/11 04:26:40;;;;;;;;;;;;;;;23.24;54.07;96614.25;4204333;28;5684;-73
2023/06/11 04:28:45;;;;;;;;;;;;;;;23.24;53.89;96621.53;4201776;28;5674;-74
2023/06/11 04:30:48;;;;;;;;;;;;;;;23.26;54.25;96615.88;4201806;28;5805;-74
2023/06/11 04:32:54;;;;;;;;;;;;;;;23.25;53.85;96625.84;4203527;28;5688;-74
2023/06/11 04:35:01;;;;;;;;;;;;;;;23.24;53.75;96621.53;4198486;28;5689;-73
2023/06/11 04:37:04;;;;;;;;;;;;;;;23.24;53.72;96625.03;4192168;28;5756;-73
2023/06/11 04:39:08;;;;;;;;;;;;;;;23.24;53.73;96626.94;4187428;28;5705;-73
2023/06/11 04:41:11;;;;;;;;;;;;;;;23.25;54.16;96623.16;4194856;28;5722;-74
2023/06/11 04:43:15;;;;;;;;;;;;;;;23.24;53.69;96627.75;4201946;28;5720;-74
2023/06/11 04:45:21;;;;;;;;;;;;;;;23.26;54.18;96629.34;4199705;28;5888;-73
2023/06/11 04:47:24;;;;;;;;;;;;;;;23.25;54.11;96628.53;4201167;28;5799;-75
2023/06/11 04:49:27;;;;;;;;;;;;;;;23.27;54.28;96633.66;4202197;28;5795;-73
2023/06/11 04:51:32;;;;;;;;;;;;;;;23.26;53.93;96626.66;4202405;28;5701;-73
2023/06/11 04:53:38;;;;;;;;;;;;;;;23.28;54.09;96629.88;4203949;28;5836;-73
2023/06/11 04:55:41;;;;;;;;;;;;;;;23.27;54.39;96631.78;4198503;28;5960;-75
2023/06/11 04:57:47;;;;;;;;;;;;;;;23.28;54.35;96632.56;4202501;28;5677;-74
2023/06/11 04:59:51;;;;;;;;;;;;;;;23.30;53.95;96638.50;4199451;28;6524;-74
2023/06/11 05:01:55;;;;;;;;;;;;;;;23.30;54.38;96636.59;4202036;28;5689;-74
2023/06/11 05:03:59;;;;;;;;;;;;;;;23.31;53.92;96634.69;4201384;28;5772;-74
2023/06/11 05:06:02;;;;;;;;;;;;;;;23.32;54.05;96631.72;4200971;28;6511;-74
2023/06/11 05:08:05;;;;;;;;;;;;;;;23.32;54.08;96629.03;4202941;28;5701;-74
2023/06/11 05:10:09;;;;;;;;;;;;;;;23.33;54.35;96635.22;4191716;28;5735;-73
2023/06/11 05:12:12;;;;;;;;;;;;;;;23.34;54.12;96636.88;4202313;28;5779;-74
2023/06/11 05:14:15;;;;;;;;;;;;;;;23.35;54.36;96641.19;4202427;28;5759;-74
2023/06/11 05:16:18;;;;;;;;;;;;;;;23.37;54.23;96641.69;4193843;28;7318;-74
2023/06/11 05:18:23;;;;;;;;;;;;;;;23.38;54.23;96633.31;4201312;28;5783;-74
2023/06/11 05:20:26;;;;;;;;;;;;;;;23.41;54.56;96640.03;4195228;28;5704;-74
2023/06/11 05:22:29;;;;;;;;;;;;;;;23.43;54.20;96641.38;4201821;28;5689;-74
2023/06/11 05:24:32;;;;;;;;;;;;;;;23.47;54.52;96645.16;4203555;28;5733;-75
2023/06/11 05:26:36;;;;;;;;;;;;;;;23.52;54.25;96638.91;4203323;28;6379;-75
2023/06/11 05:28:38;;;;;;;;;;;;;;;23.63;54.08;96645.88;4203498;28;5685;-74
2023/06/11 05:30:43;;;;;;;;;;;;;;;23.77;54.38;96651.44;4203660;28;5900;-74
2023/06/11 05:32:46;;;;;;;;;;;;;;;23.89;54.10;96643.81;4204005;28;5829;-74
2023/06/11 05:34:50;;;;;;;;;;;;;;;24.03;53.76;96649.38;4203602;28;5693;-74
2023/06/11 05:36:53;;;;;;;;;;;;;;;24.14;54.05;96650.91;4203146;28;5725;-75
2023/06/11 05:38:56;;;;;;;;;;;;;;;24.27;53.52;96649.44;4203347;28;5697;-75
2023/06/11 05:41:01;;;;;;;;;;;;;;;24.36;53.49;96648.59;4203456;28;5816;-75
2023/06/11 05:43:04;;;;;;;;;;;;;;;24.46;53.66;96653.06;4203767;28;5692;-74
2023/06/11 05:45:08;;;;;;;;;;;;;;;24.54;53.61;96638.13;4203312;28;5663;-75
2023/06/11 05:47:11;;;;;;;;;;;;;;;24.64;53.63;96654.25;4203489;28;5689;-75
2023/06/11 05:49:14;;;;;;;;;;;;;;;24.72;53.48;96645.53;4203303;28;5700;-75
2023/06/11 05:51:18;;;;;;;;;;;;;;;24.82;53.39;96647.31;4202947;28;5762;-74
2023/06/11 05:53:21;;;;;;;;;;;;;;;24.91;53.25;96650.97;4202957;28;5809;-75
2023/06/11 05:55:24;;;;;;;;;;;;;;;24.97;53.25;96647.13;4203017;28;6072;-75
2023/06/11 05:57:27;;;;;;;;;;;;;;;25.05;53.38;96649.22;4189856;28;7745;-75
2023/06/11 05:59:30;;;;;;;;;;;;;;;25.09;52.96;96644.03;4198789;28;5935;-75
2023/06/11 06:01:35;;;;;;;;;;;;;;;25.16;52.92;96644.50;4199351;28;5719;-75
2023/06/11 06:03:37;;;;;;;;;;;;;;;25.23;52.86;96647.63;4202065;28;7133;-75
2023/06/11 06:05:42;;;;;;;;;;;;;;;25.29;52.67;96641.09;4201975;28;5692;-75
2023/06/11 06:07:46;;;;;;;;;;;;;;;25.36;53.03;96649.63;4196219;28;5686;-75
2023/06/11 06:09:49;;;;;;;;;;;;;;;25.43;52.71;96649.28;4197311;28;5843;-75
2023/06/11 06:11:52;;;;;;;;;;;;;;;25.43;53.20;96647.38;4198321;28;5087;-76
2023/06/11 06:13:57;;;;;;;;;;;;;;;25.46;52.70;96652.19;4191384;28;5764;-75
2023/06/11 06:16:00;;;;;;;;;;;;;;;25.51;52.72;96640.50;4199895;28;5829;-74
2023/06/11 06:18:04;;;;;;;;;;;;;;;25.53;52.61;96639.13;4201395;28;5798;-75
2023/06/11 06:20:10;;;;;;;;;;;;;;;25.55;52.85;96641.53;4200848;28;5768;-75
2023/06/11 06:22:13;;;;;;;;;;;;;;;25.54;52.70;96646.13;4200792;28;5814;-75
2023/06/11 06:24:18;;;;;;;;;;;;;;;25.52;52.53;96645.63;4201381;28;5681;-75
2023/06/11 06:26:22;;;;;;;;;;;;;;;25.47;52.53;96645.69;4201464;28;5694;-75
2023/06/11 06:28:25;;;;;;;;;;;;;;;25.45;52.56;96642.47;4198275;28;5824;-75
2023/06/11 06:30:28;;;;;;;;;;;;;;;25.43;52.70;96644.66;4200803;28;5808;-75
2023/06/11 06:32:31;;;;;;;;;;;;;;;25.43;52.78;96649.28;4198670;28;5865;-75
2023/06/11 06:34:34;;;;;;;;;;;;;;;25.42;52.78;96643.06;4201280;28;5709;-75
2023/06/11 06:36:37;;;;;;;;;;;;;;;25.42;52.47;96648.47;4201089;28;5706;-75
2023/06/11 06:38:40;;;;;;;;;;;;;;;25.42;52.63;96648.47;4201163;28;5697;-75
2023/06/11 06:40:44;;;;;;;;;;;;;;;25.42;52.54;96651.19;4200945;28;5905;-75
2023/06/11 06:42:47;;;;;;;;;;;;;;;25.41;52.33;96649.56;4200680;28;5706;-75
2023/06/11 06:44:50;;;;;;;;;;;;;;;25.42;52.63;96655.78;4200039;28;5742;-75
2023/06/11 06:46:53;;;;;;;;;;;;;;;25.44;52.69;96657.09;4200698;28;5752;-74
2023/06/11 06:48:56;;;;;;;;;;;;;;;25.43;52.54;96652.78;4200251;28;5743;-74
2023/06/11 06:51:00;;;;;;;;;;;;;;;25.44;52.45;96648.19;4200275;28;6428;-75
2023/06/11 06:53:03;;;;;;;;;;;;;;;25.46;52.54;96651.38;4200809;28;5692;-75
2023/06/11 06:55:06;;;;;;;;;;;;;;;25.50;52.36;96661.38;4199208;28;5855;-74
2023/06/11 06:57:11;;;;;;;;;;;;;;;25.54;52.30;96648.84;4196305;28;5768;-75
2023/06/11 06:59:14;;;;;;;;;;;;;;;25.55;52.08;96663.19;4199121;28;5802;-75
2023/06/11 07:01:17;;;;;;;;;;;;;;;25.53;52.27;96649.94;4199031;28;5804;-75
2023/06/11 07:03:21;;;;;;;;;;;;;;;25.50;52.41;96658.66;4191451;28;5677;-74
2023/06/11 07:05:24;;;;;;;;;;;;;;;25.44;52.09;96651.69;4200341;28;5780;-74
2023/06/11 07:07:27;;;;;;;;;;;;;;;25.43;52.14;96651.97;4200409;28;6407;-74
2023/06/11 07:09:30;;;;;;;;;;;;;;;25.37;52.29;96650.44;4200183;28;5775;-74
2023/06/11 07:11:33;;;;;;;;;;;;;;;25.33;52.17;96650.22;4200494;28;5689;-75
2023/06/11 07:13:37;;;;;;;;;;;;;;;25.26;52.23;96652.50;4200207;28;5681;-74
2023/06/11 07:15:40;;;;;;;;;;;;;;;25.21;52.60;96652.53;4200609;28;6541;-74
2023/06/11 07:17:43;;;;;;;;;;;;;;;25.17;52.61;96649.63;4200199;28;5681;-75
2023/06/11 07:19:46;;;;;;;;;;;;;;;25.15;52.46;96646.41;4200355;28;5647;-75
2023/06/11 07:21:49;;;;;;;;;;;;;;;25.14;52.41;96647.50;4198710;28;5077;-75
2023/06/11 07:23:52;;;;;;;;;;;;;;;25.10;52.26;96648.34;4200299;28;5913;-74
2023/06/11 07:25:55;;;;;;;;;;;;;;;25.10;52.26;96653.75;4200086;28;5684;-75
2023/06/11 07:27:59;;;;;;;;;;;;;;;25.08;52.29;96648.66;4200092;28;5689;-75
2023/06/11 07:30:05;;;;;;;;;;;;;;;25.05;52.68;96646.53;4200261;28;5755;-74
2023/06/11 07:32:08;;;;;;;;;;;;;;;25.02;52.41;96646.28;4199401;28;5772;-75
2023/06/11 07:34:15;;;;;;;;;;;;;;;24.98;52.46;96654.94;4199857;28;5663;-75
2023/06/11 07:36:18;;;;;;;;;;;;;;;24.96;52.42;96657.13;4199186;28;5671;-74
2023/06/11 07:38:21;;;;;;;;;;;;;;;24.93;52.79;96657.72;4200057;28;5589;-75
2023/06/11 07:40:24;;;;;;;;;;;;;;;24.89;52.43;96651.25;4199823;28;5701;-76
2023/06/11 07:42:27;;;;;;;;;;;;;;;24.90;52.67;96658.28;4193469;28;5863;-75
2023/06/11 07:44:30;;;;;;;;;;;;;;;24.87;52.55;96653.44;4200466;28;6547;-75
2023/06/11 07:46:34;;;;;;;;;;;;;;;24.84;52.65;96664.03;4199196;28;5870;-76
2023/06/11 07:48:41;;;;;;;;;;;;;;;24.80;52.43;96663.00;4200109;28;5685;-70
2023/06/11 07:50:44;;;;;;;;;;;;;;;24.78;52.36;96663.28;4182768;28;5797;-70
2023/06/11 07:52:47;;;;;;;;;;;;;;;24.78;52.55;96663.28;4182279;28;5890;-69
2023/06/11 07:54:50;;;;;;;;;;;;;;;24.80;52.74;96669.19;4182635;28;5689;-69
2023/06/11 07:56:53;;;;;;;;;;;;;;;24.79;52.57;96655.97;4182663;28;5915;-69
2023/06/11 07:58:56;;;;;;;;;;;;;;;24.79;52.62;96651.38;4181421;28;5738;-68
2023/06/11 08:01:00;;;;;;;;;;;;;;;24.75;52.72;96652.25;4179044;28;5957;-69
2023/06/11 08:03:04;;;;;;;;;;;;;;;24.72;52.40;96655.53;4180569;28;5827;-69
2023/06/11 08:05:10;;;;;;;;;;;;;;;24.70;52.73;96653.13;4181391;28;5801;-69
2023/06/11 08:07:13;;;;;;;;;;;;;;;24.67;52.61;96650.97;4177037;28;5765;-68
2023/06/11 08:09:16;;;;;;;;;;;;;;;24.64;52.73;96646.13;4182282;28;6420;-69
2023/06/11 08:11:19;;;;;;;;;;;;;;;24.65;52.55;96650.44;4179863;28;5964;-69
2023/06/11 08:13:23;;;;;;;;;;;;;;;24.67;52.55;96648.25;4175230;28;5818;-69
2023/06/11 08:15:26;;;;;;;;;;;;;;;24.68;52.52;96650.69;4179333;28;5814;-68
2023/06/11 08:17:29;;;;;;;;;;;;;;;24.67;52.66;96653.66;4180495;28;5845;-68
2023/06/11 08:19:34;;;;;;;;;;;;;;;24.61;52.41;96652.94;4176271;28;5838;-68
2023/06/11 08:21:37;;;;;;;;;;;;;;;24.63;52.50;96647.22;4177870;28;5777;-69
2023/06/11 08:23:40;;;;;;;;;;;;;;;24.64;52.73;96648.84;4178790;28;6177;-69
2023/06/11 08:25:43;;;;;;;;;;;;;;;24.63;52.69;96647.22;4177034;28;5780;-69
2023/06/11 08:27:47;;;;;;;;;;;;;;;24.61;52.41;96649.44;4170787;28;5787;-69
2023/06/11 08:29:50;;;;;;;;;;;;;;;24.61;52.80;96649.44;4175169;28;5828;-69
2023/06/11 08:31:53;;;;;;;;;;;;;;;24.60;52.53;96645.09;4173912;28;5935;-69
2023/06/11 08:33:56;;;;;;;;;;;;;;;24.58;52.66;96644.59;4177697;28;5856;-69
2023/06/11 08:36:00;;;;;;;;;;;;;;;24.57;52.58;96653.78;4177427;28;5855;-68
2023/06/11 08:38:03;;;;;;;;;;;;;;;24.53;52.86;96647.34;4169419;28;7740;-69
2023/06/11 08:40:09;;;;;;;;;;;;;;;24.55;52.67;96640.53;4178657;28;5945;-69
2023/06/11 08:42:13;;;;;;;;;;;;;;;24.53;52.97;96650.84;4174416;28;5737;-69
2023/06/11 08:44:16;;;;;;;;;;;;;;;24.52;53.01;96651.94;4174837;28;6006;-69
2023/06/11 08:46:23;;;;;;;;;;;;;;;24.52;52.55;96646.53;4172663;28;5121;-69
2023/06/11 08:48:30;;;;;;;;;;;;;;;24.52;52.77;96635.72;4171922;28;5747;-69
2023/06/11 08:50:33;;;;;;;;;;;;;;;24.50;52.84;96643.31;4175613;28;5793;-69
2023/06/11 08:52:41;;;;;;;;;;;;;;;24.46;52.94;96641.44;4171782;28;5851;-69
2023/06/11 08:54:44;;;;;;;;;;;;;;;24.45;53.19;96637.94;4179238;28;5694;-69
2023/06/11 08:56:46;;;;;;;;;;;;;;;24.49;52.82;96638.19;4177336;28;5824;-70
2023/06/11 08:58:50;;;;;;;;;;;;;;;24.51;52.82;96636.00;4175795;28;5844;-70
2023/06/11 09:00:53;;;;;;;;;;;;;;;24.54;52.99;96633.53;4177196;28;5884;-69
2023/06/11 09:02:56;;;;;;;;;;;;;;;24.57;52.90;96632.16;4176644;28;5702;-69
2023/06/11 09:04:59;;;;;;;;;;;;;;;24.61;53.10;96628.59;4177125;28;5781;-69
2023/06/11 09:07:02;;;;;;;;;;;;;;;24.64;53.08;96621.81;4178268;28;5837;-69
2023/06/11 09:09:07;;;;;;;;;;;;;;;24.66;53.02;96616.91;4182273;28;5717;-69
2023/06/11 09:11:10;;;;;;;;;;;;;;;24.67;52.65;96624.75;4177708;28;5841;-69
2023/06/11 09:13:13;;;;;;;;;;;;;;;24.70;52.61;96617.97;4178615;28;5953;-68
2023/06/11 09:15:20;;;;;;;;;;;;;;;24.73;52.65;96628.22;4179382;28;5798;-68
2023/06/11 09:17:23;;;;;;;;;;;;;;;24.73;52.63;96614.69;4174828;28;6432;-69
2023/06/11 09:19:26;;;;;;;;;;;;;;;24.75;52.48;96620.59;4172446;28;5860;-69
2023/06/11 09:21:29;;;;;;;;;;;;;;;24.75;52.79;96626.00;4182520;28;5801;-69
2023/06/11 09:23:34;;;;;;;;;;;;;;;24.76;52.69;96624.91;4182136;28;5841;-69
2023/06/11 09:25:38;;;;;;;;;;;;;;;24.76;52.61;96619.50;4177073;28;5713;-69
2023/06/11 09:27:41;;;;;;;;;;;;;;;24.76;52.65;96618.72;4183873;28;6422;-69
2023/06/11 09:29:45;;;;;;;;;;;;;;;24.80;52.54;96614.31;4176216;28;5838;-68
2023/06/11 09:31:48;;;;;;;;;;;;;;;24.80;52.52;96620.53;4180540;28;5731;-68
2023/06/11 09:33:53;;;;;;;;;;;;;;;24.79;52.57;96613.53;4181769;28;5819;-68
2023/06/11 09:35:56;;;;;;;;;;;;;;;24.79;52.81;96613.53;4175980;28;5797;-68
2023/06/11 09:37:59;;;;;;;;;;;;;;;24.82;52.79;96615.66;4178073;28;5761;-69
2023/06/11 09:40:04;;;;;;;;;;;;;;;24.83;52.73;96611.88;4184075;28;5790;-69
2023/06/11 09:42:16;;;;;;;;;;;;;;;24.86;52.54;96616.69;4183462;28;5816;-69
2023/06/11 09:44:20;;;;;;;;;;;;;;;24.91;52.46;96615.81;4184879;28;5776;-69
2023/06/11 09:46:25;;;;;;;;;;;;;;;24.93;52.70;96609.06;4176587;28;5793;-70
2023/06/11 09:48:28;;;;;;;;;;;;;;;24.96;52.29;96613.88;4178218;28;5730;-68
2023/06/11 09:50:34;;;;;;;;;;;;;;;24.97;52.52;96610.06;4172402;28;5747;-69
2023/06/11 09:52:39;;;;;;;;;;;;;;;24.98;52.81;96605.47;4183182;28;5713;-68
2023/06/11 09:54:43;;;;;;;;;;;;;;;24.98;52.52;96606.28;4177849;28;5862;-68
2023/06/11 09:56:48;;;;;;;;;;;;;;;24.97;52.79;96604.66;4172971;28;5905;-67
2023/06/11 09:58:53;;;;;;;;;;;;;;;24.97;52.55;96604.66;4180593;28;5795;-66
2023/06/11 10:01:00;;;;;;;;;;;;;;;25.00;52.36;96599.75;4182396;28;5804;-66
2023/06/11 10:03:07;;;;;;;;;;;;;;;25.01;52.55;96594.09;4180962;28;5797;-65
2023/06/11 10:05:12;;;;;;;;;;;;;;;25.02;52.66;96600.31;4182802;28;5852;-78
2023/06/11 10:07:17;;;;;;;;;;;;;;;24.98;52.74;96597.34;4174095;28;5969;-77
2023/06/11 10:09:20;;;;;;;;;;;;;;;24.97;52.66;96601.97;4178700;28;6084;-78
2023/06/11 10:11:24;;;;;;;;;;;;;;;25.00;52.53;96602.47;4182055;28;5843;-73
2023/06/11 10:13:28;;;;;;;;;;;;;;;25.01;52.18;96596.78;4180433;28;5876;-67
2023/06/11 10:15:35;;;;;;;;;;;;;;;25.03;52.61;96586.53;4177466;28;5796;-64
2023/06/11 10:17:46;;;;;;;;;;;;;;;25.05;52.49;96595.13;4183828;28;5719;-72
2023/06/11 10:19:51;;;;;;;;;;;;;;;25.07;52.44;96589.44;4182137;28;5677;-65
2023/06/11 10:22:02;;;;;;;;;;;;;;;25.09;52.20;96598.88;4180830;28;5862;-67
2023/06/11 10:24:05;;;;;;;;;;;;;;;25.10;52.49;96597.75;4173136;28;5714;-68
2023/06/11 10:26:10;;;;;;;;;;;;;;;25.12;52.23;96583.94;4178223;28;5932;-73
2023/06/11 10:28:13;;;;;;;;;;;;;;;25.15;52.37;96586.09;4178875;28;5820;-78
2023/06/11 10:30:25;;;;;;;;;;;;;;;25.16;52.24;96582.28;4181886;28;6412;-70
2023/06/11 10:32:29;;;;;;;;;;;;;;;25.16;52.19;96585.78;4173815;28;5731;-74
2023/06/11 10:34:39;;;;;;;;;;;;;;;25.18;52.06;96588.22;4180439;28;5714;-71
2023/06/11 10:36:42;;;;;;;;;;;;;;;25.19;52.09;96579.78;4173448;28;5931;-72
2023/06/11 10:38:44;;;;;;;;;;;;;;;25.18;51.94;96578.19;4179586;28;5684;-80
2023/06/11 10:40:48;;;;;;;;;;;;;;;25.18;52.20;96580.91;4181557;28;5813;-72
2023/06/11 10:42:52;;;;;;;;;;;;;;;25.20;52.11;96572.47;4170343;28;5731;-70
2023/06/11 10:44:58;;;;;;;;;;;;;;;25.22;52.26;96581.09;4182733;28;5721;-73
2023/06/11 10:47:02;;;;;;;;;;;;;;;25.25;52.15;96577.81;4180395;28;5726;-69
2023/06/11 10:49:14;;;;;;;;;;;;;;;25.27;52.11;96572.94;4174312;28;6351;-70
2023/06/11 10:51:17;;;;;;;;;;;;;;;25.31;52.01;96573.16;4178874;28;5946;-68
2023/06/11 10:53:20;;;;;;;;;;;;;;;25.32;52.17;96575.56;4173621;28;6962;-67
2023/06/11 10:55:26;;;;;;;;;;;;;;;25.32;51.91;96566.63;4178742;28;5777;-77